Map

Track Data

SID SEASON NUMBER BASIN SUBBASIN NAME ISO_TIME NATURE LAT LON WMO_WIND WMO_PRES WMO_AGENCY TRACK_TYPE DIST2LAND LANDFALL IFLAG USA_AGENCY USA_ATCF_ID USA_LAT USA_LON USA_RECORD USA_STATUS USA_WIND USA_PRES USA_SSHS USA_R34_NE USA_R34_SE USA_R34_SW USA_R34_NW USA_R50_NE USA_R50_SE USA_R50_SW USA_R50_NW USA_R64_NE USA_R64_SE USA_R64_SW USA_R64_NW USA_POCI USA_ROCI USA_RMW USA_EYE TOKYO_LAT TOKYO_LON TOKYO_GRADE TOKYO_WIND TOKYO_PRES TOKYO_R50_DIR TOKYO_R50_LONG TOKYO_R50_SHORT TOKYO_R30_DIR TOKYO_R30_LONG TOKYO_R30_SHORT TOKYO_LAND CMA_LAT CMA_LON CMA_CAT CMA_WIND CMA_PRES HKO_LAT HKO_LON HKO_CAT HKO_WIND HKO_PRES NEWDELHI_LAT NEWDELHI_LON NEWDELHI_GRADE NEWDELHI_WIND NEWDELHI_PRES NEWDELHI_CI NEWDELHI_DP NEWDELHI_POCI REUNION_LAT REUNION_LON REUNION_TYPE REUNION_WIND REUNION_PRES REUNION_TNUM REUNION_CI REUNION_RMW REUNION_R34_NE REUNION_R34_SE REUNION_R34_SW REUNION_R34_NW REUNION_R50_NE REUNION_R50_SE REUNION_R50_SW REUNION_R50_NW REUNION_R64_NE REUNION_R64_SE REUNION_R64_SW REUNION_R64_NW BOM_LAT BOM_LON BOM_TYPE BOM_WIND BOM_PRES BOM_TNUM BOM_CI BOM_RMW BOM_R34_NE BOM_R34_SE BOM_R34_SW BOM_R34_NW BOM_R50_NE BOM_R50_SE BOM_R50_SW BOM_R50_NW BOM_R64_NE BOM_R64_SE BOM_R64_SW BOM_R64_NW BOM_ROCI BOM_POCI BOM_EYE BOM_POS_METHOD BOM_PRES_METHOD NADI_LAT NADI_LON NADI_CAT NADI_WIND NADI_PRES WELLINGTON_LAT WELLINGTON_LON WELLINGTON_WIND WELLINGTON_PRES DS824_LAT DS824_LON DS824_STAGE DS824_WIND DS824_PRES TD9636_LAT TD9636_LON TD9636_STAGE TD9636_WIND TD9636_PRES TD9635_LAT TD9635_LON TD9635_WIND TD9635_PRES TD9635_ROCI NEUMANN_LAT NEUMANN_LON NEUMANN_CLASS NEUMANN_WIND NEUMANN_PRES MLC_LAT MLC_LON MLC_CLASS MLC_WIND MLC_PRES USA_GUST BOM_GUST BOM_GUST_PER REUNION_GUST REUNION_GUST_PER USA_SEAHGT USA_SEARAD_NE USA_SEARAD_SE USA_SEARAD_SW USA_SEARAD_NW STORM_SPEED STORM_DIR
2022256N22139 2022 62 WP MM NANMADOL 2022-09-12 18:00:00 NR 21.7000 138.500 PROVISIONAL 1292 1286 O_____________ tcvitals WP162022 21.7000 138.500 25 1000 -1 1003 220 70 2 240
2022256N22139 2022 62 WP MM NANMADOL 2022-09-12 21:00:00 NR 21.6599 138.423 PROVISIONAL 1286 1286 P_____________ WP162022 21.6599 138.423 25 999 -1 1003 232 70 0 0
2022256N22139 2022 62 WP MM NANMADOL 2022-09-13 00:00:00 NR 21.7000 138.500 PROVISIONAL 1292 1287 O_____________ tcvitals WP162022 21.7000 138.500 25 999 -1 1003 245 70 4 60
2022256N22139 2022 62 WP MM NANMADOL 2022-09-13 03:00:00 NR 21.8703 138.820 PROVISIONAL 1289 1288 P_____________ WP162022 21.8703 138.820 25 998 -1 1003 252 47 8 58
2022256N22139 2022 62 WP MM NANMADOL 2022-09-13 06:00:00 NR 22.1000 139.200 PROVISIONAL 1294 1281 O_____________ tcvitals WP162022 22.1000 139.200 25 997 -1 1004 260 25 7 50
2022256N22139 2022 62 WP MM NANMADOL 2022-09-13 09:00:00 NR 22.3298 139.408 PROVISIONAL 1288 1269 P_____________ WP162022 22.3298 139.408 27 996 -1 1004 255 25 5 43
2022256N22139 2022 62 WP MM NANMADOL 2022-09-13 12:00:00 NR 22.5000 139.600 PROVISIONAL 1272 1272 O_____________ tcvitals WP162022 22.5000 139.600 29 996 -1 1005 250 25 5 68
2022256N22139 2022 62 WP MM NANMADOL 2022-09-13 15:00:00 NR 22.5151 139.915 PROVISIONAL 1281 1281 P_____________ WP162022 22.5151 139.915 32 997 -1 1004 220 27 6 90
2022256N22139 2022 62 WP MM NANMADOL 2022-09-13 18:00:00 NR 22.5000 140.200 PROVISIONAL 1290 1283 O_____________ tcvitals WP162022 22.5000 140.200 35 999 0 50 1003 190 30 4 80
2022256N22139 2022 62 WP MM NANMADOL 2022-09-13 21:00:00 NR 22.5849 140.330 PROVISIONAL 1283 1276 P_____________ WP162022 22.5849 140.330 37 997 0 67 1003 190 30 3 43
2022256N22139 2022 62 WP MM NANMADOL 2022-09-14 00:00:00 NR 22.7000 140.400 PROVISIONAL 1276 1269 O_____________ tcvitals WP162022 22.7000 140.400 39 996 0 40 85 65 1004 190 30 3 38
2022256N22139 2022 62 WP MM NANMADOL 2022-09-14 03:00:00 NR 22.8150 140.522 PROVISIONAL 1269 1262 P_____________ WP162022 22.8150 140.522 42 994 0 40 85 65 1004 245 30 3 43
2022256N22139 2022 62 WP MM NANMADOL 2022-09-14 06:00:00 NR 22.9000 140.600 PROVISIONAL 1262 1262 O_____________ tcvitals WP162022 22.9000 140.600 45 993 0 40 85 65 6 1004 300 30 1 47
2022256N22139 2022 62 WP MM NANMADOL 2022-09-14 09:00:00 NR 22.8999 140.617 PROVISIONAL 1262 1258 P_____________ WP162022 22.8999 140.617 45 992 0 75 107 82 20 1004 300 25 1 270
2022256N22139 2022 62 WP MM NANMADOL 2022-09-14 12:00:00 NR 22.9000 140.500 PROVISIONAL 1258 1238 O_____________ tcvitals WP162022 22.9000 140.500 45 991 0 110 130 100 35 1005 300 20 4 283
2022256N22139 2022 62 WP MM NANMADOL 2022-09-14 15:00:00 NR 22.9850 140.218 PROVISIONAL 1238 1214 P_____________ WP162022 22.9850 140.218 48 990 0 115 115 97 77 1004 300 20 7 287
2022256N22139 2022 62 WP MM NANMADOL 2022-09-14 18:00:00 NR 23.1000 139.800 PROVISIONAL 1214 1188 O_____________ tcvitals WP162022 23.1000 139.800 51 989 0 120 100 95 120 1003 300 20 9 285
2022256N22139 2022 62 WP MM NANMADOL 2022-09-14 21:00:00 NR 23.2001 139.315 PROVISIONAL 1188 1161 P_____________ WP162022 23.2001 139.315 52 984 0 147 172 97 135 1002 300 25 9 282
2022256N22139 2022 62 WP MM NANMADOL 2022-09-15 00:00:00 NR 23.3000 138.800 PROVISIONAL 1161 1122 O_____________ tcvitals WP162022 23.3000 138.800 54 980 0 175 245 100 150 1002 300 30 9 284
2022256N22139 2022 62 WP MM NANMADOL 2022-09-15 03:00:00 NR 23.4225 138.320 PROVISIONAL 1122 1089 P_____________ WP162022 23.4225 138.320 59 977 0 172 160 72 165 1002 322 25 9 284
2022256N22139 2022 62 WP MM NANMADOL 2022-09-15 06:00:00 NR 23.5000 137.900 PROVISIONAL 1089 1072 O_____________ tcvitals WP162022 23.5000 137.900 64 975 1 170 75 45 180 1003 345 20 7 274
2022256N22139 2022 62 WP MM NANMADOL 2022-09-15 09:00:00 NR 23.4646 137.600 PROVISIONAL 1072 1065 P_____________ WP162022 23.4646 137.600 67 972 1 165 110 87 160 1003 345 20 6 260
2022256N22139 2022 62 WP MM NANMADOL 2022-09-15 12:00:00 NR 23.4000 137.300 PROVISIONAL 1065 1044 O_____________ tcvitals WP162022 23.4000 137.300 70 970 1 160 145 130 140 1003 345 20 7 262
2022256N22139 2022 62 WP MM NANMADOL 2022-09-15 15:00:00 NR 23.3627 136.850 PROVISIONAL 1039 1018 P_____________ WP162022 23.3627 136.850 77 966 1 167 137 125 155 1003 345 22 8 270
2022256N22139 2022 62 WP MM NANMADOL 2022-09-15 18:00:00 NR 23.4000 136.400 PROVISIONAL 1018 982 O_____________ tcvitals WP162022 23.4000 136.400 84 962 2 175 130 120 170 1003 345 25 7 286
2022256N22139 2022 62 WP MM NANMADOL 2022-09-15 21:00:00 NR 23.5698 136.070 PROVISIONAL 982 948 P_____________ WP162022 23.5698 136.070 96 956 3 177 130 120 175 1003 345 22 7 306
2022256N22139 2022 62 WP MM NANMADOL 2022-09-16 00:00:00 NR 23.8000 135.800 PROVISIONAL 948 918 O_____________ tcvitals WP162022 23.8000 135.800 109 950 3 180 130 120 180 1003 345 20 6 311
2022256N22139 2022 62 WP MM NANMADOL 2022-09-16 03:00:00 NR 23.9849 135.550 PROVISIONAL 913 883 P_____________ WP162022 23.9849 135.550 112 942 3 185 142 132 177 1003 352 20 6 311
2022256N22139 2022 62 WP MM NANMADOL 2022-09-16 06:00:00 NR 24.2000 135.300 PROVISIONAL 883 839 O_____________ tcvitals WP162022 24.2000 135.300 115 935 4 190 155 145 175 1003 360 20 7 316
2022256N22139 2022 62 WP MM NANMADOL 2022-09-16 09:00:00 NR 24.4773 135.030 PROVISIONAL 839 795 P_____________ WP162022 24.4773 135.030 121 927 4 187 165 147 180 1003 370 20 8 318
2022256N22139 2022 62 WP MM NANMADOL 2022-09-16 12:00:00 NR 24.8000 134.700 PROVISIONAL 795 747 O_____________ tcvitals WP162022 24.8000 134.700 128 920 4 185 175 150 185 1004 380 20 10 314
2022256N22139 2022 62 WP MM NANMADOL 2022-09-16 15:00:00 NR 25.1577 134.258 PROVISIONAL 737 684 P_____________ WP162022 25.1577 134.258 131 918 4 180 170 150 180 1004 380 17 11 311
2022256N22139 2022 62 WP MM NANMADOL 2022-09-16 18:00:00 NR 25.5000 133.800 PROVISIONAL 684 651 O_____________ tcvitals WP162022 25.5000 133.800 134 917 4 175 165 150 175 1004 380 14 10 309
2022256N22139 2022 62 WP MM NANMADOL 2022-09-16 21:00:00 NR 25.7498 133.434 PROVISIONAL 647 605 P_____________ WP162022 25.7498 133.434 131 917 4 207 190 180 200 1004 390 14 8 308
2022256N22139 2022 62 WP MM NANMADOL 2022-09-17 00:00:00 NR 26.0000 133.100 PROVISIONAL 605 559 O_____________ tcvitals WP162022 26.0000 133.100 128 917 4 240 215 210 225 1004 400 14 9 312
2022256N22139 2022 62 WP MM NANMADOL 2022-09-17 03:00:00 NR 26.3201 132.728 PROVISIONAL 559 507 P_____________ WP162022 26.3201 132.728 128 918 4 230 205 197 210 1004 400 14 9 318
2022256N22139 2022 62 WP MM NANMADOL 2022-09-17 06:00:00 NR 26.7000 132.400 PROVISIONAL 507 459 O_____________ tcvitals WP162022 26.7000 132.400 128 919 4 220 195 185 195 1004 400 14 9 330
2022256N22139 2022 62 WP MM NANMADOL 2022-09-17 09:00:00 NR 27.1348 132.192 PROVISIONAL 459 399 P_____________ WP162022 27.1348 132.192 126 921 4 227 205 197 205 1004 400 13 10 338
2022256N22139 2022 62 WP MM NANMADOL 2022-09-17 12:00:00 NR 27.6000 132.000 PROVISIONAL 399 348 O_____________ tcvitals WP162022 27.6000 132.000 124 923 4 235 215 210 215 1005 400 12 10 334
2022256N22139 2022 62 WP MM NANMADOL 2022-09-17 15:00:00 NR 28.0276 131.700 PROVISIONAL 348 287 P_____________ WP162022 28.0276 131.700 119 926 4 235 212 205 212 1003 390 8 10 330
2022256N22139 2022 62 WP MM NANMADOL 2022-09-17 18:00:00 NR 28.5000 131.400 PROVISIONAL 287 217 O_____________ tcvitals WP162022 28.5000 131.400 115 930 4 235 210 200 210 1002 380 5 12 337
2022256N22139 2022 62 WP MM NANMADOL 2022-09-17 21:00:00 NR 29.0924 131.177 PROVISIONAL 217 147 P_____________ WP162022 29.0924 131.177 110 934 3 237 210 200 210 1002 380 7 13 344
2022256N22139 2022 62 WP MM NANMADOL 2022-09-18 00:00:00 NR 29.7000 131.000 PROVISIONAL 147 89 O_____________ tcvitals WP162022 29.7000 131.000 105 939 3 240 210 200 210 1003 380 10 12 345
2022256N22139 2022 62 WP MM NANMADOL 2022-09-18 03:00:00 NR 30.2000 130.827 PROVISIONAL 89 33 P_____________ WP162022 30.2000 130.827 99 943 3 227 210 205 210 1003 380 10 10 345
2022256N22139 2022 62 WP MM NANMADOL 2022-09-18 06:00:00 NR 30.7000 130.700 PROVISIONAL 33 0 O_____________ tcvitals WP162022 30.7000 130.700 93 947 2 215 210 210 210 1003 380 10 11 351
2022256N22139 2022 62 WP MM NANMADOL 2022-09-18 09:00:00 NR 31.2850 130.635 PROVISIONAL 0 0 P_____________ WP162022 31.2850 130.635 86 952 2 225 227 210 205 1003 380 15 12 356
2022256N22139 2022 62 WP MM NANMADOL 2022-09-18 12:00:00 NR 31.9000 130.600 PROVISIONAL 0 0 O_____________ tcvitals WP162022 31.9000 130.600 80 958 1 235 245 210 200 1003 380 20 12 355
2022256N22139 2022 62 WP MM NANMADOL 2022-09-18 15:00:00 NR 32.5149 130.498 PROVISIONAL 11 0 P_____________ WP162022 32.5149 130.498 75 961 1 235 245 210 200 1002 360 20 12 356
2022256N22139 2022 62 WP MM NANMADOL 2022-09-18 18:00:00 NR 33.1000 130.500 PROVISIONAL 0 0 O_____________ tcvitals WP162022 33.1000 130.500 70 965 1 235 245 210 200 1001 340 20 11 8
2022256N22139 2022 62 WP MM NANMADOL 2022-09-18 21:00:00 NR 33.6371 130.695 PROVISIONAL 0 0 P_____________ WP162022 33.6371 130.695 65 970 1 230 242 205 200 1001 329 20 11 27
2022256N22139 2022 62 WP MM NANMADOL 2022-09-19 00:00:00 NR 34.1000 131.100 PROVISIONAL 0 0 O_____________ tcvitals WP162022 34.1000 131.100 60 975 0 225 240 200 200 1002 319 20 11 45
2022256N22139 2022 62 WP MM NANMADOL 2022-09-19 03:00:00 NR 34.4270 131.655 PROVISIONAL 0 0 P_____________ WP162022 34.4270 131.655 57 973 0 257 227 190 235 1001 309 35 13 57
2022256N22139 2022 62 WP MM NANMADOL 2022-09-19 06:00:00 NR 34.8000 132.400 PROVISIONAL 0 0 O_____________ tcvitals WP162022 34.8000 132.400 54 971 0 290 215 180 270 1000 300 50 16 53
2022256N22139 2022 62 WP MM NANMADOL 2022-09-19 09:00:00 NR 35.4034 133.239 PROVISIONAL 0 0 P_____________ WP162022 35.4034 133.239 52 971 0 275 217 205 280 1000 290 55 20 50
2022256N22139 2022 62 WP MM NANMADOL 2022-09-19 12:00:00 NR 36.1000 134.300 PROVISIONAL 56 55 O_____________ tcvitals WP162022 36.1000 134.300 51 971 0 260 220 230 290 1000 280 60 24 55
2022256N22139 2022 62 WP MM NANMADOL 2022-09-19 15:00:00 NR 36.7695 135.620 PROVISIONAL 71 0 P_____________ WP162022 36.7695 135.620 48 974 0 260 150 180 290 1000 280 60 26 60
2022256N22139 2022 62 WP MM NANMADOL 2022-09-19 18:00:00 NR 37.4000 137.100 PROVISIONAL 0 O_____________ tcvitals WP162022 37.4000 137.100 45 978 0 260 80 130 290 1000 280 60 27 62

Digital Typhoon Data and Search

About IBTrACS Database

This database is a web-friendly format of International Best Track Archive for Climate Stewardship (IBTrACS), a global best track data archive curated by NOAA dating back to 1842.

Updated: 2022-09-30